Bintulu, Malaysia
Current Conditions -  °F | °C
As of 10:00 PM on Friday 19 Dec 2014 (Local Time) from WBGB Reporting Station
Broken Clouds Broken Clouds  
Wind Chill: 79°   Ceiling: 15000
Heat Index: 83°   Visibility: 6mi
Dew Point: 77°   Wind: 1mph
Humidity: 94%   Direction: 70°ENE
Pressure: 29.85"   Gusts: NA
Location:  3.17°N, 113.03°E
Report Text: WBGB 191400Z 07001KT 9999 FEW016 BKN150 26/25 Q1011
Loading
Personal Weather Stations






























Interactive Weather Map New forecast layout! Learn more

10-Day Weather Forecast

Advertisements
Track Severe Weather on mobile